Terminal Aerodrome Forecast
Issued by NWS Cleveland, OH

Home | Current Version | Previous Version | Graphics & Text | Print | Product List | Glossary On
Versions: 1 2 3 4 5 6 7 8 9 10 11 12 13 14 15 16 17
000
FTUS41 KCLE 271500 AAA
TAFCAK
TAF AMD
KCAK 271503Z 2715/2812 36013KT 2SM -SN OVC015
      TEMPO 2716/2718 3SM -SN
     FM271800 36013KT P6SM OVC020
      TEMPO 2720/2724 3SM -SN
     FM280300 34010KT P6SM OVC100
     FM280600 32008KT P6SM SCT250=

USA.gov is the U.S. government's official web portal to all federal, state and local government web resources and services.